Aérodrome :
LOGIN :

S'inscrire | Disclaimer

   EN    FR    IT 

 










Légende :    VFR   VFR Marginal   IFR   IFR Intensif   IFR Très Intensif
Visi : 
Plafond : 
>= 8 km
>= 3000ft
5 à 8 km
1000 à 3000 ft
1500m à 5 km
500 à 1000 ft
800 à 1500m
200 à 500 ft
< 800m
< 200 ft
Symboles :   Orages  Brouillard  Fortes neiges  Fortes précipitations  Vent > 20 kt
SIGMETs :   Divers  Orages  Givrage  Turbulence  Onde Orograph.  Cendres Volcan.







- Altitude de l'aérodrome : 290 ft
- Code IATA : LAI
- Voir les cartes d'approche


LFRO - Lannion

DERNIER METAR :
  • 290700Z AUTO 20008KT 180V250 9999 FEW011 SCT026 BKN066 15/12 Q0997 NOSIG

METARs EXPIRÉS :
  • 290630Z AUTO 21007KT 180V240 9999 FEW010 SCT036 OVC060 14/12 Q0997 NOSIG
  • 290600Z AUTO 22008KT 190V250 9999 FEW019 SCT037 BKN048 14/12 Q0997 NOSIG
  • 290530Z AUTO 20006KT 160V220 9999 BKN039 BKN140 13/12 Q0997 NOSIG
  • 290500Z AUTO 21007KT 9999 FEW012 OVC035 13/12 Q0997
  • 290430Z AUTO 23006KT 9999 FEW010 BKN033 12/11 Q0997

TAF TAF LFRO
Valide du 29 à 06h jusqu'au 30 à 06h UTC


290500Z 2906/3006 22005KT 9999 FEW013 BKN025 BKN030
TEMPO 2912/2918 SHRA BKN014 SCT020TCU
TEMPO 2915/2921 33015G25KT
BECMG 2918/2921 BKN012
TEMPO 2921/3006 4000 -RA BKN006
Pas de NOTAMs connus pour ce terrain.
1 SIGMET publié pour la FIR Brest (LFRR) :
 
Turbulence forte
LFRR SIGMET 1 VALID 290530/290930 LFPW
LFRR BREST FIR/UIR SEV TURB FCST SE OF LINE N4445 W00145 - N4415 W00500 SFC/FL050 STNR INTSF=



MET'MAP, la Météo Aéronautique d'un coup d'oeil ! - Copyright ORBIFLY Décembre 2007 - Disclaimer

ORBIFLY MET'MAP TEAM :

Programmation & Développement : Alexandra Zaïnal
Conception & Développement : Baudouin d'Aumeries
Co-Programmation & Développement : Marc-Olivier Méhu
Soutien technique & logistique : Manuel Goepfert

Contact : metmap@orbifly.com




SOURCES & CREDITS :

   NOAA